sensor_id;sensor_type;location;lat;lon;timestamp;P1;durP1;ratioP1;P2;durP2;ratioP2
28078;SDS011;15388;42.238;24.684;2023-04-24T00:00:18;14.27;;;8.45;;
28078;SDS011;15388;42.238;24.684;2023-04-24T00:02:44;13.15;;;10.05;;
28078;SDS011;15388;42.238;24.684;2023-04-24T00:05:12;23.85;;;11.93;;
28078;SDS011;15388;42.238;24.684;2023-04-24T00:07:38;15.45;;;10.95;;
28078;SDS011;15388;42.238;24.684;2023-04-24T00:10:04;17.85;;;10.32;;
28078;SDS011;15388;42.238;24.684;2023-04-24T00:12:30;17.42;;;10.40;;
28078;SDS011;15388;42.238;24.684;2023-04-24T00:14:56;12.90;;;8.90;;
28078;SDS011;15388;42.238;24.684;2023-04-24T00:17:21;14.52;;;8.80;;
28078;SDS011;15388;42.238;24.684;2023-04-24T00:19:47;14.57;;;9.48;;
28078;SDS011;15388;42.238;24.684;2023-04-24T00:22:13;14.27;;;8.93;;
28078;SDS011;15388;42.238;24.684;2023-04-24T00:24:39;11.90;;;9.53;;
28078;SDS011;15388;42.238;24.684;2023-04-24T00:27:05;15.18;;;9.27;;
28078;SDS011;15388;42.238;24.684;2023-04-24T00:29:30;10.50;;;8.57;;
28078;SDS011;15388;42.238;24.684;2023-04-24T00:31:56;13.45;;;8.85;;
28078;SDS011;15388;42.238;24.684;2023-04-24T00:34:22;10.98;;;8.20;;
28078;SDS011;15388;42.238;24.684;2023-04-24T00:36:47;10.00;;;8.10;;
28078;SDS011;15388;42.238;24.684;2023-04-24T00:39:15;10.32;;;7.68;;
28078;SDS011;15388;42.238;24.684;2023-04-24T00:41:40;8.70;;;7.10;;
28078;SDS011;15388;42.238;24.684;2023-04-24T00:44:06;11.10;;;9.25;;
28078;SDS011;15388;42.238;24.684;2023-04-24T00:46:32;11.88;;;8.52;;
28078;SDS011;15388;42.238;24.684;2023-04-24T00:48:58;15.40;;;9.40;;
28078;SDS011;15388;42.238;24.684;2023-04-24T00:51:24;11.65;;;8.95;;
28078;SDS011;15388;42.238;24.684;2023-04-24T00:53:49;11.93;;;8.98;;
28078;SDS011;15388;42.238;24.684;2023-04-24T00:56:16;12.93;;;10.43;;
28078;SDS011;15388;42.238;24.684;2023-04-24T00:58:43;10.75;;;8.02;;
28078;SDS011;15388;42.238;24.684;2023-04-24T01:01:09;17.05;;;9.30;;
28078;SDS011;15388;42.238;24.684;2023-04-24T01:03:36;14.25;;;9.60;;
28078;SDS011;15388;42.238;24.684;2023-04-24T01:06:03;12.23;;;9.07;;
28078;SDS011;15388;42.238;24.684;2023-04-24T01:08:30;20.58;;;10.18;;
28078;SDS011;15388;42.238;24.684;2023-04-24T01:10:57;11.90;;;8.55;;
28078;SDS011;15388;42.238;24.684;2023-04-24T01:13:22;12.13;;;9.88;;
28078;SDS011;15388;42.238;24.684;2023-04-24T01:15:48;12.52;;;9.68;;
28078;SDS011;15388;42.238;24.684;2023-04-24T01:18:14;11.70;;;9.50;;
28078;SDS011;15388;42.238;24.684;2023-04-24T01:20:42;13.50;;;10.32;;
28078;SDS011;15388;42.238;24.684;2023-04-24T01:23:10;15.15;;;9.45;;
28078;SDS011;15388;42.238;24.684;2023-04-24T01:25:36;13.57;;;9.55;;
28078;SDS011;15388;42.238;24.684;2023-04-24T01:28:02;15.45;;;10.23;;
28078;SDS011;15388;42.238;24.684;2023-04-24T03:31:51;14.77;;;9.07;;
28078;SDS011;15388;42.238;24.684;2023-04-24T03:34:16;15.73;;;9.30;;
28078;SDS011;15388;42.238;24.684;2023-04-24T03:36:41;11.70;;;8.65;;
28078;SDS011;15388;42.238;24.684;2023-04-24T03:39:07;13.95;;;8.63;;
28078;SDS011;15388;42.238;24.684;2023-04-24T03:41:32;11.60;;;8.55;;
28078;SDS011;15388;42.238;24.684;2023-04-24T03:43:58;17.88;;;9.35;;
28078;SDS011;15388;42.238;24.684;2023-04-24T03:46:23;15.48;;;10.13;;
28078;SDS011;15388;42.238;24.684;2023-04-24T03:48:49;12.98;;;9.15;;
28078;SDS011;15388;42.238;24.684;2023-04-24T03:51:14;16.65;;;11.10;;
28078;SDS011;15388;42.238;24.684;2023-04-24T03:53:40;17.27;;;11.82;;
28078;SDS011;15388;42.238;24.684;2023-04-24T03:56:05;29.50;;;11.90;;
28078;SDS011;15388;42.238;24.684;2023-04-24T03:58:31;17.40;;;12.32;;
28078;SDS011;15388;42.238;24.684;2023-04-24T04:00:56;19.30;;;13.10;;
28078;SDS011;15388;42.238;24.684;2023-04-24T04:03:23;39.97;;;15.63;;
28078;SDS011;15388;42.238;24.684;2023-04-24T04:05:48;27.15;;;19.38;;
28078;SDS011;15388;42.238;24.684;2023-04-24T04:08:14;29.88;;;16.30;;
28078;SDS011;15388;42.238;24.684;2023-04-24T04:10:39;21.27;;;12.50;;
28078;SDS011;15388;42.238;24.684;2023-04-24T04:13:05;25.92;;;13.65;;
28078;SDS011;15388;42.238;24.684;2023-04-24T04:15:31;23.13;;;15.13;;
28078;SDS011;15388;42.238;24.684;2023-04-24T04:17:57;20.30;;;14.82;;
28078;SDS011;15388;42.238;24.684;2023-04-24T04:20:22;15.95;;;10.25;;
28078;SDS011;15388;42.238;24.684;2023-04-24T04:22:48;16.90;;;10.25;;
28078;SDS011;15388;42.238;24.684;2023-04-24T04:25:13;18.17;;;10.45;;
28078;SDS011;15388;42.238;24.684;2023-04-24T04:27:39;21.15;;;10.40;;
28078;SDS011;15388;42.238;24.684;2023-04-24T04:30:06;14.68;;;10.38;;
28078;SDS011;15388;42.238;24.684;2023-04-24T04:32:36;20.88;;;10.88;;
28078;SDS011;15388;42.238;24.684;2023-04-24T04:35:02;15.52;;;11.15;;
28078;SDS011;15388;42.238;24.684;2023-04-24T04:37:37;33.88;;;16.10;;
28078;SDS011;15388;42.238;24.684;2023-04-24T04:40:03;25.67;;;15.15;;
28078;SDS011;15388;42.238;24.684;2023-04-24T04:42:32;22.90;;;12.13;;
28078;SDS011;15388;42.238;24.684;2023-04-24T04:44:59;24.05;;;11.10;;
28078;SDS011;15388;42.238;24.684;2023-04-24T04:47:25;37.33;;;16.53;;
28078;SDS011;15388;42.238;24.684;2023-04-24T04:49:52;40.05;;;17.00;;
28078;SDS011;15388;42.238;24.684;2023-04-24T04:52:17;30.95;;;14.15;;
28078;SDS011;15388;42.238;24.684;2023-04-24T04:54:43;22.50;;;12.70;;
28078;SDS011;15388;42.238;24.684;2023-04-24T04:57:09;18.20;;;10.55;;
28078;SDS011;15388;42.238;24.684;2023-04-24T04:59:35;14.77;;;10.20;;
28078;SDS011;15388;42.238;24.684;2023-04-24T05:02:00;14.98;;;9.25;;
28078;SDS011;15388;42.238;24.684;2023-04-24T05:04:25;15.57;;;9.45;;
28078;SDS011;15388;42.238;24.684;2023-04-24T05:06:51;16.05;;;8.65;;
28078;SDS011;15388;42.238;24.684;2023-04-24T05:09:17;16.55;;;8.52;;
28078;SDS011;15388;42.238;24.684;2023-04-24T05:11:43;14.68;;;8.75;;
28078;SDS011;15388;42.238;24.684;2023-04-24T05:14:08;11.95;;;8.20;;
28078;SDS011;15388;42.238;24.684;2023-04-24T05:16:34;12.23;;;8.27;;
28078;SDS011;15388;42.238;24.684;2023-04-24T05:19:00;13.70;;;8.85;;
28078;SDS011;15388;42.238;24.684;2023-04-24T05:21:25;16.10;;;9.18;;
28078;SDS011;15388;42.238;24.684;2023-04-24T05:23:52;14.02;;;8.88;;
28078;SDS011;15388;42.238;24.684;2023-04-24T05:26:17;24.00;;;9.13;;
28078;SDS011;15388;42.238;24.684;2023-04-24T05:28:43;20.60;;;9.77;;
28078;SDS011;15388;42.238;24.684;2023-04-24T05:31:10;16.98;;;8.45;;
28078;SDS011;15388;42.238;24.684;2023-04-24T05:33:35;18.63;;;9.73;;
28078;SDS011;15388;42.238;24.684;2023-04-24T05:36:01;11.88;;;8.90;;
28078;SDS011;15388;42.238;24.684;2023-04-24T05:38:26;12.48;;;7.85;;
28078;SDS011;15388;42.238;24.684;2023-04-24T05:40:51;20.50;;;9.25;;
28078;SDS011;15388;42.238;24.684;2023-04-24T05:43:17;12.23;;;8.88;;
28078;SDS011;15388;42.238;24.684;2023-04-24T05:45:42;10.43;;;7.75;;
28078;SDS011;15388;42.238;24.684;2023-04-24T05:48:08;11.90;;;8.48;;
28078;SDS011;15388;42.238;24.684;2023-04-24T05:50:33;14.13;;;8.25;;
28078;SDS011;15388;42.238;24.684;2023-04-24T05:52:58;16.90;;;8.27;;
28078;SDS011;15388;42.238;24.684;2023-04-24T05:55:27;35.70;;;9.43;;
28078;SDS011;15388;42.238;24.684;2023-04-24T05:57:52;21.23;;;9.27;;
28078;SDS011;15388;42.238;24.684;2023-04-24T06:00:18;17.58;;;8.70;;
28078;SDS011;15388;42.238;24.684;2023-04-24T06:02:45;18.88;;;9.43;;
28078;SDS011;15388;42.238;24.684;2023-04-24T06:05:11;20.50;;;9.45;;
28078;SDS011;15388;42.238;24.684;2023-04-24T06:07:36;20.23;;;8.57;;
28078;SDS011;15388;42.238;24.684;2023-04-24T06:10:03;16.35;;;8.63;;
28078;SDS011;15388;42.238;24.684;2023-04-24T06:12:29;23.85;;;9.25;;
28078;SDS011;15388;42.238;24.684;2023-04-24T06:14:55;15.10;;;9.18;;
28078;SDS011;15388;42.238;24.684;2023-04-24T06:17:20;14.48;;;8.82;;
28078;SDS011;15388;42.238;24.684;2023-04-24T06:19:46;16.10;;;8.82;;
28078;SDS011;15388;42.238;24.684;2023-04-24T06:22:12;15.15;;;8.45;;
28078;SDS011;15388;42.238;24.684;2023-04-24T06:24:39;15.95;;;8.10;;
28078;SDS011;15388;42.238;24.684;2023-04-24T06:27:05;15.10;;;10.15;;
28078;SDS011;15388;42.238;24.684;2023-04-24T06:29:30;17.05;;;9.18;;
28078;SDS011;15388;42.238;24.684;2023-04-24T06:31:56;24.80;;;9.40;;
28078;SDS011;15388;42.238;24.684;2023-04-24T06:34:21;12.18;;;8.38;;
28078;SDS011;15388;42.238;24.684;2023-04-24T06:36:48;13.32;;;8.55;;
28078;SDS011;15388;42.238;24.684;2023-04-24T06:39:14;13.85;;;8.98;;
28078;SDS011;15388;42.238;24.684;2023-04-24T06:41:40;14.60;;;8.43;;
28078;SDS011;15388;42.238;24.684;2023-04-24T06:44:06;10.77;;;7.93;;
28078;SDS011;15388;42.238;24.684;2023-04-24T06:46:31;15.90;;;8.55;;
28078;SDS011;15388;42.238;24.684;2023-04-24T06:48:56;10.63;;;8.43;;
28078;SDS011;15388;42.238;24.684;2023-04-24T06:51:22;13.25;;;8.48;;
28078;SDS011;15388;42.238;24.684;2023-04-24T06:53:49;11.63;;;8.45;;
28078;SDS011;15388;42.238;24.684;2023-04-24T06:56:15;15.07;;;8.13;;
28078;SDS011;15388;42.238;24.684;2023-04-24T06:58:40;11.07;;;7.85;;
28078;SDS011;15388;42.238;24.684;2023-04-24T07:01:06;13.57;;;7.40;;
28078;SDS011;15388;42.238;24.684;2023-04-24T07:03:32;19.58;;;8.32;;
28078;SDS011;15388;42.238;24.684;2023-04-24T07:05:57;17.70;;;8.20;;
28078;SDS011;15388;42.238;24.684;2023-04-24T07:08:23;11.10;;;7.28;;
28078;SDS011;15388;42.238;24.684;2023-04-24T07:10:49;25.08;;;8.35;;
28078;SDS011;15388;42.238;24.684;2023-04-24T07:13:16;15.07;;;8.52;;
28078;SDS011;15388;42.238;24.684;2023-04-24T07:15:42;16.38;;;9.15;;
28078;SDS011;15388;42.238;24.684;2023-04-24T07:18:08;13.50;;;8.07;;
28078;SDS011;15388;42.238;24.684;2023-04-24T07:20:33;15.05;;;8.40;;
28078;SDS011;15388;42.238;24.684;2023-04-24T07:22:59;20.80;;;8.98;;
28078;SDS011;15388;42.238;24.684;2023-04-24T07:25:24;15.05;;;8.90;;
28078;SDS011;15388;42.238;24.684;2023-04-24T07:27:50;12.82;;;8.27;;
28078;SDS011;15388;42.238;24.684;2023-04-24T07:30:15;10.93;;;8.35;;
28078;SDS011;15388;42.238;24.684;2023-04-24T07:32:41;20.40;;;7.90;;
28078;SDS011;15388;42.238;24.684;2023-04-24T07:35:06;11.20;;;7.85;;
28078;SDS011;15388;42.238;24.684;2023-04-24T07:37:34;23.00;;;10.23;;
28078;SDS011;15388;42.238;24.684;2023-04-24T07:40:01;21.15;;;8.93;;
28078;SDS011;15388;42.238;24.684;2023-04-24T07:42:27;12.35;;;8.85;;
28078;SDS011;15388;42.238;24.684;2023-04-24T07:44:53;11.93;;;9.27;;
28078;SDS011;15388;42.238;24.684;2023-04-24T07:47:18;13.60;;;8.80;;
28078;SDS011;15388;42.238;24.684;2023-04-24T07:49:44;13.68;;;8.70;;
28078;SDS011;15388;42.238;24.684;2023-04-24T07:52:10;15.82;;;8.90;;
28078;SDS011;15388;42.238;24.684;2023-04-24T07:54:35;12.35;;;7.95;;
28078;SDS011;15388;42.238;24.684;2023-04-24T07:57:02;14.10;;;8.13;;
28078;SDS011;15388;42.238;24.684;2023-04-24T07:59:30;24.88;;;9.88;;
28078;SDS011;15388;42.238;24.684;2023-04-24T08:01:55;14.90;;;8.88;;
28078;SDS011;15388;42.238;24.684;2023-04-24T08:04:21;11.27;;;8.05;;
28078;SDS011;15388;42.238;24.684;2023-04-24T08:06:49;22.25;;;9.32;;
28078;SDS011;15388;42.238;24.684;2023-04-24T08:09:14;11.90;;;7.75;;
28078;SDS011;15388;42.238;24.684;2023-04-24T08:11:40;11.90;;;8.13;;
28078;SDS011;15388;42.238;24.684;2023-04-24T08:14:05;15.55;;;8.55;;
28078;SDS011;15388;42.238;24.684;2023-04-24T08:16:32;19.60;;;8.90;;
28078;SDS011;15388;42.238;24.684;2023-04-24T08:18:58;13.85;;;8.98;;
28078;SDS011;15388;42.238;24.684;2023-04-24T08:21:24;12.57;;;8.53;;
28078;SDS011;15388;42.238;24.684;2023-04-24T08:23:51;9.80;;;8.77;;
28078;SDS011;15388;42.238;24.684;2023-04-24T08:26:16;13.80;;;8.18;;
28078;SDS011;15388;42.238;24.684;2023-04-24T08:28:42;19.20;;;8.10;;
28078;SDS011;15388;42.238;24.684;2023-04-24T08:31:07;7.72;;;6.82;;
28078;SDS011;15388;42.238;24.684;2023-04-24T08:33:32;12.70;;;7.00;;
28078;SDS011;15388;42.238;24.684;2023-04-24T08:36:04;13.77;;;7.50;;
28078;SDS011;15388;42.238;24.684;2023-04-24T08:38:30;11.98;;;8.20;;
28078;SDS011;15388;42.238;24.684;2023-04-24T08:40:57;12.68;;;8.65;;
28078;SDS011;15388;42.238;24.684;2023-04-24T08:43:24;9.85;;;6.90;;
28078;SDS011;15388;42.238;24.684;2023-04-24T08:45:51;17.98;;;7.72;;
28078;SDS011;15388;42.238;24.684;2023-04-24T08:48:17;20.48;;;9.02;;
28078;SDS011;15388;42.238;24.684;2023-04-24T08:50:43;15.70;;;8.73;;
28078;SDS011;15388;42.238;24.684;2023-04-24T08:53:09;15.15;;;6.80;;
28078;SDS011;15388;42.238;24.684;2023-04-24T08:55:36;10.85;;;8.70;;
28078;SDS011;15388;42.238;24.684;2023-04-24T08:58:02;13.05;;;7.20;;
28078;SDS011;15388;42.238;24.684;2023-04-24T09:00:28;15.70;;;7.70;;
28078;SDS011;15388;42.238;24.684;2023-04-24T09:02:54;12.43;;;7.78;;
28078;SDS011;15388;42.238;24.684;2023-04-24T09:05:21;17.00;;;7.20;;
28078;SDS011;15388;42.238;24.684;2023-04-24T09:07:57;13.25;;;7.25;;
28078;SDS011;15388;42.238;24.684;2023-04-24T09:10:25;12.52;;;7.63;;
28078;SDS011;15388;42.238;24.684;2023-04-24T09:12:51;19.52;;;7.95;;
28078;SDS011;15388;42.238;24.684;2023-04-24T09:15:20;18.23;;;7.93;;
28078;SDS011;15388;42.238;24.684;2023-04-24T09:17:46;9.77;;;8.77;;
28078;SDS011;15388;42.238;24.684;2023-04-24T09:20:12;15.85;;;8.10;;
28078;SDS011;15388;42.238;24.684;2023-04-24T09:22:38;15.00;;;7.63;;
28078;SDS011;15388;42.238;24.684;2023-04-24T09:25:05;12.70;;;8.02;;
28078;SDS011;15388;42.238;24.684;2023-04-24T09:27:34;12.13;;;7.65;;
28078;SDS011;15388;42.238;24.684;2023-04-24T09:30:00;18.67;;;8.13;;
28078;SDS011;15388;42.238;24.684;2023-04-24T09:32:27;14.57;;;8.52;;
28078;SDS011;15388;42.238;24.684;2023-04-24T09:37:45;11.65;;;7.15;;
28078;SDS011;15388;42.238;24.684;2023-04-24T09:40:15;11.48;;;7.13;;
28078;SDS011;15388;42.238;24.684;2023-04-24T09:42:54;11.32;;;7.55;;
28078;SDS011;15388;42.238;24.684;2023-04-24T09:45:21;10.45;;;8.25;;
28078;SDS011;15388;42.238;24.684;2023-04-24T09:47:51;14.73;;;8.23;;
28078;SDS011;15388;42.238;24.684;2023-04-24T09:50:17;14.52;;;8.15;;
28078;SDS011;15388;42.238;24.684;2023-04-24T09:52:44;20.40;;;8.30;;
28078;SDS011;15388;42.238;24.684;2023-04-24T09:57:46;12.00;;;7.13;;
28078;SDS011;15388;42.238;24.684;2023-04-24T10:00:13;14.75;;;7.65;;
28078;SDS011;15388;42.238;24.684;2023-04-24T10:02:42;13.75;;;8.25;;
28078;SDS011;15388;42.238;24.684;2023-04-24T10:05:09;10.70;;;7.63;;
28078;SDS011;15388;42.238;24.684;2023-04-24T10:10:02;11.40;;;8.07;;
28078;SDS011;15388;42.238;24.684;2023-04-24T10:12:28;12.05;;;7.40;;
28078;SDS011;15388;42.238;24.684;2023-04-24T10:14:55;9.85;;;7.05;;
28078;SDS011;15388;42.238;24.684;2023-04-24T10:17:22;8.95;;;6.50;;
28078;SDS011;15388;42.238;24.684;2023-04-24T10:19:49;8.90;;;6.40;;
28078;SDS011;15388;42.238;24.684;2023-04-24T10:22:16;8.65;;;6.25;;
28078;SDS011;15388;42.238;24.684;2023-04-24T10:24:43;10.27;;;6.87;;
28078;SDS011;15388;42.238;24.684;2023-04-24T10:27:10;10.52;;;6.70;;
28078;SDS011;15388;42.238;24.684;2023-04-24T10:29:37;9.70;;;6.60;;
28078;SDS011;15388;42.238;24.684;2023-04-24T10:34:32;7.32;;;5.85;;
28078;SDS011;15388;42.238;24.684;2023-04-24T10:36:57;6.45;;;5.72;;
28078;SDS011;15388;42.238;24.684;2023-04-24T10:39:23;7.07;;;5.80;;
28078;SDS011;15388;42.238;24.684;2023-04-24T10:41:49;7.53;;;5.57;;
28078;SDS011;15388;42.238;24.684;2023-04-24T10:44:15;9.35;;;5.05;;
28078;SDS011;15388;42.238;24.684;2023-04-24T10:46:44;8.05;;;5.65;;
28078;SDS011;15388;42.238;24.684;2023-04-24T10:49:11;11.50;;;6.65;;
28078;SDS011;15388;42.238;24.684;2023-04-24T10:51:49;7.65;;;5.90;;
28078;SDS011;15388;42.238;24.684;2023-04-24T10:54:22;9.98;;;5.25;;
28078;SDS011;15388;42.238;24.684;2023-04-24T10:56:50;6.57;;;5.03;;
28078;SDS011;15388;42.238;24.684;2023-04-24T10:59:26;6.72;;;5.35;;
28078;SDS011;15388;42.238;24.684;2023-04-24T11:01:53;7.72;;;4.65;;
28078;SDS011;15388;42.238;24.684;2023-04-24T11:04:29;9.63;;;5.82;;
28078;SDS011;15388;42.238;24.684;2023-04-24T11:07:02;8.88;;;5.65;;
28078;SDS011;15388;42.238;24.684;2023-04-24T11:09:32;9.98;;;5.72;;
28078;SDS011;15388;42.238;24.684;2023-04-24T11:12:08;9.63;;;6.55;;
28078;SDS011;15388;42.238;24.684;2023-04-24T11:17:28;11.07;;;4.97;;
28078;SDS011;15388;42.238;24.684;2023-04-24T11:20:04;8.23;;;6.15;;
28078;SDS011;15388;42.238;24.684;2023-04-24T11:22:35;12.57;;;5.88;;
28078;SDS011;15388;42.238;24.684;2023-04-24T11:25:02;9.60;;;5.53;;
28078;SDS011;15388;42.238;24.684;2023-04-24T11:32:27;9.75;;;5.57;;
28078;SDS011;15388;42.238;24.684;2023-04-24T11:35:36;10.85;;;5.07;;
28078;SDS011;15388;42.238;24.684;2023-04-24T11:37:44;9.80;;;5.50;;
28078;SDS011;15388;42.238;24.684;2023-04-24T11:40:17;7.00;;;5.85;;
28078;SDS011;15388;42.238;24.684;2023-04-24T11:42:47;7.82;;;6.03;;
28078;SDS011;15388;42.238;24.684;2023-04-24T11:47:41;8.55;;;5.80;;
28078;SDS011;15388;42.238;24.684;2023-04-24T11:50:08;17.90;;;6.22;;
28078;SDS011;15388;42.238;24.684;2023-04-24T11:52:39;7.28;;;5.72;;
28078;SDS011;15388;42.238;24.684;2023-04-24T11:55:06;13.32;;;6.03;;
28078;SDS011;15388;42.238;24.684;2023-04-24T11:57:55;7.30;;;5.18;;
28078;SDS011;15388;42.238;24.684;2023-04-24T12:00:23;8.57;;;5.18;;
28078;SDS011;15388;42.238;24.684;2023-04-24T12:03:03;8.50;;;5.18;;
28078;SDS011;15388;42.238;24.684;2023-04-24T12:05:31;7.63;;;5.32;;
28078;SDS011;15388;42.238;24.684;2023-04-24T12:07:56;11.27;;;5.43;;
28078;SDS011;15388;42.238;24.684;2023-04-24T12:10:22;12.27;;;5.80;;
28078;SDS011;15388;42.238;24.684;2023-04-24T12:12:50;5.45;;;4.93;;
28078;SDS011;15388;42.238;24.684;2023-04-24T12:15:17;14.85;;;5.97;;
28078;SDS011;15388;42.238;24.684;2023-04-24T12:17:46;10.35;;;5.70;;
28078;SDS011;15388;42.238;24.684;2023-04-24T12:20:12;5.72;;;4.75;;
28078;SDS011;15388;42.238;24.684;2023-04-24T12:25:19;6.30;;;4.82;;
28078;SDS011;15388;42.238;24.684;2023-04-24T12:27:46;21.73;;;6.78;;
28078;SDS011;15388;42.238;24.684;2023-04-24T12:30:18;6.45;;;5.30;;
28078;SDS011;15388;42.238;24.684;2023-04-24T12:32:47;12.40;;;5.43;;
28078;SDS011;15388;42.238;24.684;2023-04-24T12:35:18;8.70;;;5.20;;
28078;SDS011;15388;42.238;24.684;2023-04-24T12:37:46;11.00;;;5.30;;
28078;SDS011;15388;42.238;24.684;2023-04-24T12:40:12;6.82;;;5.60;;
28078;SDS011;15388;42.238;24.684;2023-04-24T12:45:11;10.70;;;6.13;;
28078;SDS011;15388;42.238;24.684;2023-04-24T12:47:37;9.45;;;5.72;;
28078;SDS011;15388;42.238;24.684;2023-04-24T12:50:04;16.52;;;6.32;;
28078;SDS011;15388;42.238;24.684;2023-04-24T12:52:31;17.48;;;6.20;;
28078;SDS011;15388;42.238;24.684;2023-04-24T12:54:57;11.95;;;5.65;;
28078;SDS011;15388;42.238;24.684;2023-04-24T12:57:24;43.38;;;7.15;;
28078;SDS011;15388;42.238;24.684;2023-04-24T12:59:55;16.55;;;5.82;;
28078;SDS011;15388;42.238;24.684;2023-04-24T13:02:22;9.48;;;5.30;;
28078;SDS011;15388;42.238;24.684;2023-04-24T13:04:49;10.27;;;5.40;;
28078;SDS011;15388;42.238;24.684;2023-04-24T13:07:15;11.65;;;6.57;;
28078;SDS011;15388;42.238;24.684;2023-04-24T13:09:42;6.03;;;4.90;;
28078;SDS011;15388;42.238;24.684;2023-04-24T13:12:08;6.80;;;4.88;;
28078;SDS011;15388;42.238;24.684;2023-04-24T13:14:35;7.88;;;4.95;;
28078;SDS011;15388;42.238;24.684;2023-04-24T13:17:01;10.10;;;4.72;;
28078;SDS011;15388;42.238;24.684;2023-04-24T13:19:27;5.30;;;4.25;;
28078;SDS011;15388;42.238;24.684;2023-04-24T13:21:54;20.92;;;6.50;;
28078;SDS011;15388;42.238;24.684;2023-04-24T13:24:21;7.43;;;4.53;;
28078;SDS011;15388;42.238;24.684;2023-04-24T13:26:49;6.88;;;5.10;;
28078;SDS011;15388;42.238;24.684;2023-04-24T13:29:15;11.73;;;5.45;;
28078;SDS011;15388;42.238;24.684;2023-04-24T13:31:41;6.00;;;5.40;;
28078;SDS011;15388;42.238;24.684;2023-04-24T13:34:06;8.02;;;4.53;;
28078;SDS011;15388;42.238;24.684;2023-04-24T13:36:32;7.13;;;4.72;;
28078;SDS011;15388;42.238;24.684;2023-04-24T13:38:57;10.77;;;5.68;;
28078;SDS011;15388;42.238;24.684;2023-04-24T13:41:23;11.90;;;5.00;;
28078;SDS011;15388;42.238;24.684;2023-04-24T13:43:48;35.70;;;7.28;;
28078;SDS011;15388;42.238;24.684;2023-04-24T13:46:15;8.40;;;5.47;;
28078;SDS011;15388;42.238;24.684;2023-04-24T13:48:41;10.65;;;5.60;;
28078;SDS011;15388;42.238;24.684;2023-04-24T13:51:07;11.23;;;5.35;;
28078;SDS011;15388;42.238;24.684;2023-04-24T13:53:32;9.25;;;5.45;;
28078;SDS011;15388;42.238;24.684;2023-04-24T13:56:00;28.33;;;7.15;;
28078;SDS011;15388;42.238;24.684;2023-04-24T13:58:27;9.95;;;4.85;;
28078;SDS011;15388;42.238;24.684;2023-04-24T14:00:52;8.10;;;4.88;;
28078;SDS011;15388;42.238;24.684;2023-04-24T14:03:18;21.10;;;5.95;;
28078;SDS011;15388;42.238;24.684;2023-04-24T14:05:43;20.77;;;5.55;;
28078;SDS011;15388;42.238;24.684;2023-04-24T14:08:09;6.93;;;4.47;;
28078;SDS011;15388;42.238;24.684;2023-04-24T14:10:34;10.45;;;6.05;;
28078;SDS011;15388;42.238;24.684;2023-04-24T14:13:01;8.25;;;4.72;;
28078;SDS011;15388;42.238;24.684;2023-04-24T14:15:27;9.57;;;4.60;;
28078;SDS011;15388;42.238;24.684;2023-04-24T14:17:53;9.43;;;4.63;;
28078;SDS011;15388;42.238;24.684;2023-04-24T14:20:18;13.85;;;5.20;;
28078;SDS011;15388;42.238;24.684;2023-04-24T14:22:43;6.30;;;5.20;;
28078;SDS011;15388;42.238;24.684;2023-04-24T14:25:09;14.10;;;5.20;;
28078;SDS011;15388;42.238;24.684;2023-04-24T14:27:36;13.30;;;5.38;;
28078;SDS011;15388;42.238;24.684;2023-04-24T14:30:01;10.85;;;5.20;;
28078;SDS011;15388;42.238;24.684;2023-04-24T14:32:27;14.35;;;4.95;;
28078;SDS011;15388;42.238;24.684;2023-04-24T14:34:53;9.73;;;5.03;;
28078;SDS011;15388;42.238;24.684;2023-04-24T14:37:18;16.88;;;6.35;;
28078;SDS011;15388;42.238;24.684;2023-04-24T14:39:44;12.70;;;5.13;;
28078;SDS011;15388;42.238;24.684;2023-04-24T14:42:10;7.50;;;4.43;;
28078;SDS011;15388;42.238;24.684;2023-04-24T14:44:36;13.75;;;5.38;;
28078;SDS011;15388;42.238;24.684;2023-04-24T14:47:01;13.02;;;6.15;;
28078;SDS011;15388;42.238;24.684;2023-04-24T14:49:26;13.13;;;5.10;;
28078;SDS011;15388;42.238;24.684;2023-04-24T14:51:52;12.43;;;5.43;;
28078;SDS011;15388;42.238;24.684;2023-04-24T14:54:17;7.68;;;5.10;;
28078;SDS011;15388;42.238;24.684;2023-04-24T14:56:43;8.02;;;5.50;;
28078;SDS011;15388;42.238;24.684;2023-04-24T14:59:09;20.55;;;5.90;;
28078;SDS011;15388;42.238;24.684;2023-04-24T15:01:35;8.20;;;6.15;;
28078;SDS011;15388;42.238;24.684;2023-04-24T15:04:01;11.30;;;6.03;;
28078;SDS011;15388;42.238;24.684;2023-04-24T15:06:27;25.23;;;7.10;;
28078;SDS011;15388;42.238;24.684;2023-04-24T15:08:52;13.65;;;7.25;;
28078;SDS011;15388;42.238;24.684;2023-04-24T15:11:18;6.97;;;6.28;;
28078;SDS011;15388;42.238;24.684;2023-04-24T15:13:43;12.82;;;6.65;;
28078;SDS011;15388;42.238;24.684;2023-04-24T15:16:12;10.43;;;5.85;;
28078;SDS011;15388;42.238;24.684;2023-04-24T15:18:37;8.75;;;6.10;;
28078;SDS011;15388;42.238;24.684;2023-04-24T15:21:03;7.90;;;5.68;;
28078;SDS011;15388;42.238;24.684;2023-04-24T15:23:28;11.00;;;5.00;;
28078;SDS011;15388;42.238;24.684;2023-04-24T15:25:54;14.48;;;5.20;;
28078;SDS011;15388;42.238;24.684;2023-04-24T15:28:19;7.68;;;5.22;;
28078;SDS011;15388;42.238;24.684;2023-04-24T15:30:46;12.35;;;5.80;;
28078;SDS011;15388;42.238;24.684;2023-04-24T15:33:12;9.55;;;4.85;;
28078;SDS011;15388;42.238;24.684;2023-04-24T15:35:38;7.35;;;5.20;;
28078;SDS011;15388;42.238;24.684;2023-04-24T15:38:03;17.48;;;5.35;;
28078;SDS011;15388;42.238;24.684;2023-04-24T15:40:29;5.90;;;4.45;;
28078;SDS011;15388;42.238;24.684;2023-04-24T15:42:54;7.47;;;5.75;;
28078;SDS011;15388;42.238;24.684;2023-04-24T15:45:20;7.35;;;5.85;;
28078;SDS011;15388;42.238;24.684;2023-04-24T15:47:45;11.70;;;5.10;;
28078;SDS011;15388;42.238;24.684;2023-04-24T15:50:14;14.63;;;5.88;;
28078;SDS011;15388;42.238;24.684;2023-04-24T15:52:41;15.13;;;5.47;;
28078;SDS011;15388;42.238;24.684;2023-04-24T15:55:07;6.95;;;5.40;;
28078;SDS011;15388;42.238;24.684;2023-04-24T15:57:33;6.47;;;4.97;;
28078;SDS011;15388;42.238;24.684;2023-04-24T15:59:59;6.82;;;5.18;;
28078;SDS011;15388;42.238;24.684;2023-04-24T16:02:24;7.60;;;5.10;;
28078;SDS011;15388;42.238;24.684;2023-04-24T16:04:50;14.63;;;5.10;;
28078;SDS011;15388;42.238;24.684;2023-04-24T16:07:17;4.80;;;4.40;;
28078;SDS011;15388;42.238;24.684;2023-04-24T16:09:42;5.32;;;4.85;;
28078;SDS011;15388;42.238;24.684;2023-04-24T16:12:08;11.65;;;5.43;;
28078;SDS011;15388;42.238;24.684;2023-04-24T16:14:34;6.60;;;4.85;;
28078;SDS011;15388;42.238;24.684;2023-04-24T16:17:03;5.68;;;4.85;;
28078;SDS011;15388;42.238;24.684;2023-04-24T16:19:29;5.97;;;5.43;;
28078;SDS011;15388;42.238;24.684;2023-04-24T16:21:55;7.15;;;5.20;;
28078;SDS011;15388;42.238;24.684;2023-04-24T16:24:24;10.82;;;6.07;;
28078;SDS011;15388;42.238;24.684;2023-04-24T16:26:50;7.65;;;6.38;;
28078;SDS011;15388;42.238;24.684;2023-04-24T16:29:17;22.88;;;7.60;;
28078;SDS011;15388;42.238;24.684;2023-04-24T16:31:43;15.32;;;6.70;;
28078;SDS011;15388;42.238;24.684;2023-04-24T16:34:08;28.42;;;7.00;;
28078;SDS011;15388;42.238;24.684;2023-04-24T16:36:34;8.65;;;6.97;;
28078;SDS011;15388;42.238;24.684;2023-04-24T16:39:00;16.02;;;6.80;;
28078;SDS011;15388;42.238;24.684;2023-04-24T16:41:26;9.98;;;6.03;;
28078;SDS011;15388;42.238;24.684;2023-04-24T16:43:53;7.07;;;5.88;;
28078;SDS011;15388;42.238;24.684;2023-04-24T16:46:19;7.60;;;6.32;;